createdAt,value
2022-10-24T00:02:20.437Z,17.8
2022-10-24T00:04:46.492Z,17.8
2022-10-24T00:07:11.607Z,17.7
2022-10-24T00:09:37.716Z,17.7
2022-10-24T00:12:03.793Z,17.6
2022-10-24T00:14:29.928Z,17.6
2022-10-24T00:16:55.988Z,17.5
2022-10-24T00:19:22.122Z,17.5
2022-10-24T00:21:48.167Z,17.4
2022-10-24T00:24:14.251Z,17.3
2022-10-24T00:26:40.367Z,17.3
2022-10-24T00:29:06.459Z,17.2
2022-10-24T00:31:32.572Z,17.1
2022-10-24T00:33:58.639Z,17
2022-10-24T00:36:24.829Z,17
2022-10-24T00:38:49.863Z,16.9
2022-10-24T00:41:15.976Z,16.8
2022-10-24T00:43:42.055Z,16.7
2022-10-24T00:46:08.125Z,16.6
2022-10-24T00:48:34.259Z,16.6
2022-10-24T00:51:00.331Z,16.5
2022-10-24T00:53:26.456Z,16.4
2022-10-24T00:55:52.523Z,16.3
2022-10-24T00:58:18.665Z,16.2
2022-10-24T01:00:44.837Z,16.1
2022-10-24T01:03:10.796Z,16.1
2022-10-24T01:05:36.907Z,16
2022-10-24T01:08:02.991Z,16
2022-10-24T01:10:28.175Z,16
2022-10-24T01:12:54.252Z,15.9
2022-10-24T01:15:20.288Z,15.9
2022-10-24T01:17:46.389Z,16
2022-10-24T01:20:12.482Z,16
2022-10-24T01:22:38.595Z,16.1
2022-10-24T01:25:04.673Z,16.1
2022-10-24T01:27:30.796Z,16.2
2022-10-24T01:29:56.868Z,16.2
2022-10-24T01:32:22.997Z,16.3
2022-10-24T01:34:49.048Z,16.3
2022-10-24T01:37:15.213Z,16.4
2022-10-24T01:39:41.246Z,16.4
2022-10-24T01:42:06.349Z,16.4
2022-10-24T01:44:32.490Z,16.4
2022-10-24T01:46:58.539Z,16.5
2022-10-24T01:49:24.709Z,16.5
2022-10-24T01:51:50.729Z,16.5
2022-10-24T01:54:16.841Z,16.5
2022-10-24T01:56:42.941Z,16.4
2022-10-24T01:59:09.022Z,16.4
2022-10-24T02:01:35.141Z,16.4
2022-10-24T02:04:01.210Z,16.4
2022-10-24T02:06:27.334Z,16.4
2022-10-24T02:08:53.405Z,16.4
2022-10-24T02:11:19.538Z,16.4
2022-10-24T02:13:44.618Z,16.4
2022-10-24T02:16:10.686Z,16.4
2022-10-24T02:18:36.821Z,16.4
2022-10-24T02:21:02.911Z,16.4
2022-10-24T02:23:29.026Z,16.4
2022-10-24T02:25:55.088Z,16.4
2022-10-24T02:28:21.167Z,16.4
2022-10-24T02:30:47.266Z,16.4
2022-10-24T02:33:13.446Z,16.3
2022-10-24T02:35:39.492Z,16.3
2022-10-24T02:38:05.568Z,16.4
2022-10-24T02:40:31.677Z,16.4
2022-10-24T02:42:57.742Z,16.4
2022-10-24T02:45:22.966Z,16.4
2022-10-24T02:47:48.960Z,16.4
2022-10-24T02:50:15.116Z,16.4
2022-10-24T02:52:41.165Z,16.4
2022-10-24T02:55:07.232Z,16.4
2022-10-24T02:57:33.361Z,16.4
2022-10-24T02:59:59.411Z,16.4
2022-10-24T03:02:25.570Z,16.4
2022-10-24T03:04:51.604Z,16.4
2022-10-24T03:07:17.766Z,16.4
2022-10-24T03:09:43.805Z,16.4
2022-10-24T03:12:09.886Z,16.3
2022-10-24T03:14:36.006Z,16.3
2022-10-24T03:17:01.107Z,16.3
2022-10-24T03:19:27.191Z,16.2
2022-10-24T03:21:53.289Z,16.2
2022-10-24T03:24:19.386Z,16.2
2022-10-24T03:29:11.597Z,16.2
2022-10-24T03:31:37.711Z,16.2
2022-10-24T03:34:03.764Z,16.2
2022-10-24T03:36:29.900Z,16.2
2022-10-24T03:38:55.946Z,16.2
2022-10-24T03:41:22.103Z,16.2
2022-10-24T03:43:48.165Z,16.3
2022-10-24T03:46:14.249Z,16.3
2022-10-24T03:48:39.388Z,16.3
2022-10-24T03:51:05.442Z,16.3
2022-10-24T03:53:31.637Z,16.3
2022-10-24T03:55:57.635Z,16.2
2022-10-24T03:58:23.790Z,16.2
2022-10-24T04:00:49.828Z,16.2
2022-10-24T04:03:15.950Z,16.2
2022-10-24T04:05:42.037Z,16.1
2022-10-24T04:08:08.117Z,16.1
2022-10-24T04:10:34.231Z,16.1
2022-10-24T04:13:00.305Z,16.1
2022-10-24T04:15:26.444Z,16.1
2022-10-24T04:17:52.514Z,16.1
2022-10-24T04:20:17.609Z,16
2022-10-24T04:22:43.721Z,16
2022-10-24T04:25:09.811Z,16
2022-10-24T04:27:35.923Z,16
2022-10-24T04:30:01.977Z,16
2022-10-24T04:32:28.126Z,16
2022-10-24T04:34:54.176Z,16
2022-10-24T04:37:20.324Z,15.9
2022-10-24T04:39:46.369Z,15.9
2022-10-24T04:42:12.529Z,15.9
2022-10-24T04:44:38.569Z,15.9
2022-10-24T04:47:04.646Z,15.9
2022-10-24T04:49:30.773Z,15.9
2022-10-24T04:51:55.876Z,15.9
2022-10-24T04:54:21.978Z,15.9
2022-10-24T04:56:48.054Z,15.9
2022-10-24T04:59:14.138Z,15.9
2022-10-24T05:01:40.262Z,15.9
2022-10-24T05:04:05.353Z,15.9
2022-10-24T05:06:31.500Z,15.9
2022-10-24T05:08:57.552Z,15.9
2022-10-24T05:11:23.732Z,15.9
2022-10-24T05:13:49.749Z,15.9
2022-10-24T05:16:15.859Z,15.9
2022-10-24T05:18:41.947Z,15.9
2022-10-24T05:21:08.011Z,15.9
2022-10-24T05:23:34.148Z,15.9
2022-10-24T05:26:00.241Z,15.8
2022-10-24T05:30:52.434Z,15.8
2022-10-24T05:33:18.528Z,15.8
2022-10-24T05:35:43.708Z,15.8
2022-10-24T05:38:09.709Z,15.8
2022-10-24T05:40:35.836Z,15.8
2022-10-24T05:43:01.889Z,15.8
2022-10-24T05:45:28.040Z,15.8
2022-10-24T05:47:54.079Z,15.9
2022-10-24T05:50:20.181Z,15.9
2022-10-24T05:52:46.326Z,15.9
2022-10-24T05:55:12.386Z,15.9
2022-10-24T05:57:38.490Z,15.9
2022-10-24T06:00:04.611Z,16
2022-10-24T06:02:30.685Z,16
2022-10-24T06:04:56.740Z,16
2022-10-24T06:07:21.837Z,16.1
2022-10-24T06:09:47.972Z,16.1
2022-10-24T06:12:14.034Z,16.1
2022-10-24T06:14:40.186Z,16.1
2022-10-24T06:17:06.238Z,16.1
2022-10-24T06:19:32.316Z,16.1
2022-10-24T06:21:58.417Z,16.1
2022-10-24T06:24:24.491Z,16.1
2022-10-24T06:26:50.614Z,16.1
2022-10-24T06:29:16.740Z,16.1
2022-10-24T06:31:42.817Z,16.2
2022-10-24T06:34:08.954Z,16.3
2022-10-24T06:36:35.044Z,16.3
2022-10-24T06:39:00.117Z,16.4
2022-10-24T06:41:26.208Z,16.5
2022-10-24T06:43:52.310Z,16.5
2022-10-24T06:46:18.489Z,16.5
2022-10-24T06:48:44.519Z,16.5
2022-10-24T06:51:10.565Z,16.4
2022-10-24T06:53:36.721Z,16.4
2022-10-24T06:56:02.748Z,16.4
2022-10-24T06:58:28.935Z,16.4
2022-10-24T07:00:54.972Z,16.4
2022-10-24T07:03:21.062Z,16.3
2022-10-24T07:05:47.156Z,16.3
2022-10-24T07:08:13.245Z,16.3
2022-10-24T07:10:38.339Z,16.3
2022-10-24T07:13:04.440Z,16.3
2022-10-24T07:15:30.533Z,16.2
2022-10-24T07:17:56.642Z,16.2
2022-10-24T07:20:22.813Z,16.2
2022-10-24T07:22:48.956Z,16.2
2022-10-24T07:25:15.060Z,16.1
2022-10-24T07:27:41.045Z,16.1
2022-10-24T07:30:07.100Z,16.1
2022-10-24T07:32:33.254Z,16
2022-10-24T07:34:59.295Z,16
2022-10-24T07:37:25.408Z,15.9
2022-10-24T07:39:51.517Z,15.8
2022-10-24T07:42:16.589Z,15.8
2022-10-24T07:44:42.673Z,15.8
2022-10-24T07:47:08.774Z,15.8
2022-10-24T07:49:34.951Z,15.7
2022-10-24T07:52:01.011Z,15.7
2022-10-24T07:54:27.164Z,15.7
2022-10-24T07:56:53.255Z,15.7
2022-10-24T07:59:19.231Z,15.7
2022-10-24T08:01:45.385Z,15.7
2022-10-24T08:04:11.436Z,15.7
2022-10-24T08:06:37.585Z,15.7
2022-10-24T08:09:03.629Z,15.7
2022-10-24T08:11:29.722Z,15.7
2022-10-24T08:13:54.866Z,15.7
2022-10-24T08:16:20.913Z,15.7
2022-10-24T08:18:47.075Z,15.7
2022-10-24T08:21:13.113Z,15.7
2022-10-24T08:23:39.208Z,15.6
2022-10-24T08:26:05.328Z,15.6
2022-10-24T08:28:31.396Z,15.6
2022-10-24T08:30:57.520Z,15.6
2022-10-24T08:33:23.577Z,15.6
2022-10-24T08:35:49.715Z,15.5
2022-10-24T08:38:15.777Z,15.5
2022-10-24T08:40:41.924Z,15.5
2022-10-24T08:43:08.008Z,15.5
2022-10-24T08:45:33.070Z,15.4
2022-10-24T08:47:59.217Z,15.4
2022-10-24T08:50:25.268Z,15.4
2022-10-24T08:52:51.411Z,15.5
2022-10-24T08:55:17.476Z,15.5
2022-10-24T08:57:43.540Z,15.5
2022-10-24T09:00:09.651Z,15.5
2022-10-24T09:02:35.740Z,15.6
2022-10-24T09:05:01.854Z,15.6
2022-10-24T09:07:27.922Z,15.6
2022-10-24T09:09:54.050Z,15.6
2022-10-24T09:12:20.191Z,15.6
2022-10-24T09:14:46.330Z,15.7
2022-10-24T09:17:11.336Z,15.7
2022-10-24T09:19:37.426Z,15.7
2022-10-24T09:22:03.574Z,15.8
2022-10-24T09:24:29.601Z,15.8
2022-10-24T09:26:55.742Z,15.8
2022-10-24T09:29:21.802Z,15.8
2022-10-24T09:31:47.951Z,15.9
2022-10-24T09:34:13.988Z,15.9
2022-10-24T09:36:40.075Z,15.9
2022-10-24T09:39:06.197Z,16
2022-10-24T09:41:32.353Z,16
2022-10-24T09:43:58.395Z,16
2022-10-24T09:46:24.481Z,16.1
2022-10-24T09:48:49.619Z,16.1
2022-10-24T09:51:15.678Z,16.1
2022-10-24T09:53:41.769Z,16.1
2022-10-24T09:56:07.877Z,16.1
2022-10-24T09:58:33.938Z,16.2
2022-10-24T10:01:00.080Z,16.2
2022-10-24T10:03:26.137Z,16.2
2022-10-24T10:05:52.283Z,16.2
2022-10-24T10:08:18.325Z,16.2
2022-10-24T10:10:44.490Z,16.2
2022-10-24T10:13:10.793Z,16.2
2022-10-24T10:15:36.636Z,16.3
2022-10-24T10:18:02.728Z,16.3
2022-10-24T10:20:27.809Z,16.3
2022-10-24T10:22:53.975Z,16.3
2022-10-24T10:25:20.014Z,16.4
2022-10-24T10:27:46.096Z,16.4
2022-10-24T10:30:12.211Z,16.5
2022-10-24T10:32:38.279Z,16.5
2022-10-24T10:35:04.415Z,16.6
2022-10-24T10:37:30.475Z,16.6
2022-10-24T10:39:56.614Z,16.6
2022-10-24T10:42:22.676Z,16.7
2022-10-24T10:44:48.827Z,16.7
2022-10-24T10:47:14.871Z,16.7
2022-10-24T10:49:41.023Z,16.7
2022-10-24T10:52:06.104Z,16.8
2022-10-24T10:54:32.165Z,16.8
2022-10-24T10:56:58.307Z,16.9
2022-10-24T10:59:24.361Z,16.9
2022-10-24T11:01:50.507Z,17
2022-10-24T11:04:16.553Z,17
2022-10-24T11:06:42.648Z,17
2022-10-24T11:09:08.751Z,17.1
2022-10-24T11:11:34.841Z,17.1
2022-10-24T11:14:00.952Z,17.2
2022-10-24T11:16:27.022Z,17.2
2022-10-24T11:18:53.158Z,17.2
2022-10-24T11:21:19.233Z,17.2
2022-10-24T11:23:44.339Z,17.3
2022-10-24T11:26:10.559Z,17.3
2022-10-24T11:28:36.523Z,17.3
2022-10-24T11:31:02.641Z,17.3
2022-10-24T11:33:28.726Z,17.3
2022-10-24T11:35:54.845Z,17.3
2022-10-24T11:38:20.891Z,17.3
2022-10-24T11:40:47.047Z,17.3
2022-10-24T11:43:13.094Z,17.2
2022-10-24T11:45:39.174Z,17.2
2022-10-24T11:48:05.287Z,17.2
2022-10-24T11:50:31.373Z,17.2
2022-10-24T11:52:57.493Z,17.2
2022-10-24T11:55:22.581Z,17.2
2022-10-24T11:57:48.694Z,17.2
2022-10-24T12:00:14.777Z,17.2
2022-10-24T12:02:40.856Z,17.2
2022-10-24T12:05:06.987Z,17.2
2022-10-24T12:07:33.048Z,17.2
2022-10-24T12:09:59.212Z,17.2
2022-10-24T12:12:25.237Z,17.3
2022-10-24T12:14:51.387Z,17.3
2022-10-24T12:17:17.438Z,17.3
2022-10-24T12:19:43.587Z,17.3
2022-10-24T12:22:09.626Z,17.3
2022-10-24T12:24:35.721Z,17.3
2022-10-24T12:27:00.870Z,17.3
2022-10-24T12:29:26.924Z,17.3
2022-10-24T12:31:53.074Z,17.3
2022-10-24T12:34:19.119Z,17.4
2022-10-24T12:36:45.200Z,17.4
2022-10-24T12:39:11.313Z,17.3
2022-10-24T12:41:37.395Z,17.3
2022-10-24T12:44:03.520Z,17.3
2022-10-24T12:46:29.582Z,17.3
2022-10-24T12:48:55.720Z,17.3
2022-10-24T12:51:21.777Z,17.3
2022-10-24T12:53:47.923Z,17.4
2022-10-24T12:56:13.967Z,17.4
2022-10-24T12:58:39.092Z,17.4
2022-10-24T13:01:05.223Z,17.4
2022-10-24T13:03:31.259Z,17.4
2022-10-24T13:05:57.407Z,17.4
2022-10-24T13:08:23.453Z,17.5
2022-10-24T13:10:49.612Z,17.5
2022-10-24T13:13:14.699Z,17.5
2022-10-24T13:15:40.773Z,17.5
2022-10-24T13:18:06.895Z,17.5
2022-10-24T13:20:32.962Z,17.6
2022-10-24T13:22:59.102Z,17.6
2022-10-24T13:25:25.165Z,17.7
2022-10-24T13:27:51.235Z,17.7
2022-10-24T13:30:17.338Z,17.7
2022-10-24T13:32:43.431Z,17.8
2022-10-24T13:35:09.543Z,17.8
2022-10-24T13:37:35.628Z,17.8
2022-10-24T13:40:01.743Z,17.9
2022-10-24T13:42:27.810Z,17.9
2022-10-24T13:44:52.937Z,17.9
2022-10-24T13:47:19.026Z,17.9
2022-10-24T13:49:45.098Z,18
2022-10-24T13:52:11.230Z,18
2022-10-24T13:54:37.298Z,18
2022-10-24T13:57:03.439Z,18
2022-10-24T13:59:29.521Z,18
2022-10-24T14:01:55.571Z,18
2022-10-24T14:04:21.677Z,18
2022-10-24T14:06:47.762Z,17.9
2022-10-24T14:09:13.901Z,17.9
2022-10-24T14:11:39.974Z,17.9
2022-10-24T14:14:06.088Z,17.9
2022-10-24T14:16:31.165Z,17.8
2022-10-24T14:18:57.263Z,17.8
2022-10-24T14:21:23.363Z,17.8
2022-10-24T14:23:49.455Z,17.7
2022-10-24T14:26:15.570Z,17.7
2022-10-24T14:28:41.667Z,17.6
2022-10-24T14:31:07.777Z,17.6
2022-10-24T14:33:33.853Z,17.6
2022-10-24T14:35:59.971Z,17.5
2022-10-24T14:38:26.015Z,17.5
2022-10-24T14:40:52.174Z,17.5
2022-10-24T14:43:18.225Z,17.4
2022-10-24T14:45:44.310Z,17.4
2022-10-24T14:48:09.454Z,17.4
2022-10-24T14:50:35.529Z,17.4
2022-10-24T14:53:01.655Z,17.4
2022-10-24T14:55:27.699Z,17.4
2022-10-24T14:57:54.942Z,17.4
2022-10-24T15:00:19.903Z,17.5
2022-10-24T15:02:45.985Z,17.5
2022-10-24T15:05:12.106Z,17.6
2022-10-24T15:07:38.177Z,17.6
2022-10-24T15:12:30.371Z,17.6
2022-10-24T15:14:56.512Z,17.6
2022-10-24T15:17:22.563Z,17.5
2022-10-24T15:19:48.653Z,17.4
2022-10-24T15:22:13.792Z,17.4
2022-10-24T15:24:39.859Z,17.3
2022-10-24T15:27:06.028Z,17.3
2022-10-24T15:29:32.043Z,17.2
2022-10-24T15:31:58.197Z,17.1
2022-10-24T15:34:24.234Z,17
2022-10-24T15:36:50.407Z,16.9
2022-10-24T15:39:16.437Z,16.8
2022-10-24T15:41:42.531Z,16.7
2022-10-24T15:44:08.645Z,16.7
2022-10-24T15:46:34.725Z,16.6
2022-10-24T15:49:00.852Z,16.5
2022-10-24T15:51:26.917Z,16.4
2022-10-24T15:53:52.027Z,16.4
2022-10-24T15:56:18.138Z,16.3
2022-10-24T15:58:44.211Z,16.2
2022-10-24T16:01:10.351Z,16.1
2022-10-24T16:03:36.411Z,16.1
2022-10-24T16:06:02.531Z,16
2022-10-24T16:08:28.586Z,16
2022-10-24T16:10:54.739Z,15.9
2022-10-24T16:13:20.792Z,15.9
2022-10-24T16:15:46.940Z,15.8
2022-10-24T16:18:12.981Z,15.7
2022-10-24T16:20:39.158Z,15.6
2022-10-24T16:23:05.192Z,15.6
2022-10-24T16:25:30.274Z,15.5
2022-10-24T16:27:56.422Z,15.4
2022-10-24T16:30:22.465Z,15.3
2022-10-24T16:32:48.581Z,15.2
2022-10-24T16:35:14.665Z,15.2
2022-10-24T16:37:40.738Z,15.1
2022-10-24T16:40:06.869Z,15
2022-10-24T16:42:32.947Z,14.9
2022-10-24T16:44:59.076Z,14.9
2022-10-24T16:47:25.122Z,14.8
2022-10-24T16:49:51.301Z,14.7
2022-10-24T16:52:17.319Z,14.7
2022-10-24T16:54:43.425Z,14.7
2022-10-24T16:57:08.559Z,14.6
2022-10-24T16:59:34.616Z,14.6
2022-10-24T17:02:00.758Z,14.6
2022-10-24T17:04:26.821Z,14.6
2022-10-24T17:06:53.000Z,14.6
2022-10-24T17:09:19.022Z,14.6
2022-10-24T17:11:45.174Z,14.6
2022-10-24T17:14:11.206Z,14.6
2022-10-24T17:16:37.370Z,14.6
2022-10-24T17:19:03.413Z,14.6
2022-10-24T17:21:29.506Z,14.6
2022-10-24T17:23:55.611Z,14.6
2022-10-24T17:26:21.705Z,14.6
2022-10-24T17:28:46.864Z,14.5
2022-10-24T17:31:12.914Z,14.5
2022-10-24T17:33:39.058Z,14.5
2022-10-24T17:36:05.098Z,14.4
2022-10-24T17:38:31.186Z,14.4
2022-10-24T17:40:57.297Z,14.4
2022-10-24T17:43:23.371Z,14.5
2022-10-24T17:45:49.521Z,14.5
2022-10-24T17:48:15.570Z,14.5
2022-10-24T17:50:41.700Z,14.5
2022-10-24T17:53:07.755Z,14.5
2022-10-24T17:55:33.852Z,14.5
2022-10-24T17:57:59.956Z,14.5
2022-10-24T18:00:25.055Z,14.6
2022-10-24T18:02:51.209Z,14.6
2022-10-24T18:05:17.269Z,14.6
2022-10-24T18:07:43.393Z,14.5
2022-10-24T18:10:09.451Z,14.5
2022-10-24T18:12:35.589Z,14.5
2022-10-24T18:15:01.661Z,14.4
2022-10-24T18:17:27.723Z,14.4
2022-10-24T18:19:53.833Z,14.4
2022-10-24T18:22:19.933Z,14.4
2022-10-24T18:24:46.073Z,14.4
2022-10-24T18:27:12.112Z,14.4
2022-10-24T18:29:38.241Z,14.4
2022-10-24T18:32:03.322Z,14.4
2022-10-24T18:36:55.552Z,14.4
2022-10-24T18:39:21.636Z,14.1
2022-10-24T18:41:47.740Z,13.8
2022-10-24T18:44:13.790Z,13.5
2022-10-24T18:46:39.934Z,13.3
2022-10-24T18:49:05.996Z,13.1
2022-10-24T18:51:32.153Z,13
2022-10-24T18:53:58.173Z,12.9
2022-10-24T18:56:24.346Z,12.8
2022-10-24T18:58:50.378Z,12.8
2022-10-24T19:01:16.462Z,12.7
2022-10-24T19:03:41.623Z,12.7
2022-10-24T19:06:07.668Z,12.7
2022-10-24T19:08:33.760Z,12.7
2022-10-24T19:10:59.882Z,12.7
2022-10-24T19:13:25.988Z,12.7
2022-10-24T19:15:52.079Z,12.7
2022-10-24T19:18:18.157Z,12.7
2022-10-24T19:20:44.274Z,12.7
2022-10-24T19:23:10.330Z,12.7
2022-10-24T19:25:36.476Z,12.7
2022-10-24T19:28:02.533Z,12.7
2022-10-24T19:30:28.669Z,12.7
2022-10-24T19:32:54.780Z,12.7
2022-10-24T19:35:19.847Z,12.7
2022-10-24T19:37:45.956Z,12.7
2022-10-24T19:40:12.018Z,12.7
2022-10-24T19:42:38.175Z,12.7
2022-10-24T19:45:04.214Z,12.7
2022-10-24T19:47:30.358Z,12.7
2022-10-24T19:49:56.413Z,12.7
2022-10-24T19:52:22.493Z,12.6
2022-10-24T19:54:48.610Z,12.6
2022-10-24T19:57:14.689Z,12.6
2022-10-24T19:59:40.825Z,12.6
2022-10-24T20:02:06.910Z,12.6
2022-10-24T20:04:33.009Z,12.6
2022-10-24T20:06:58.092Z,12.6
2022-10-24T20:09:24.254Z,12.6
2022-10-24T20:11:50.321Z,12.7
2022-10-24T20:14:16.380Z,12.7
2022-10-24T20:16:42.492Z,12.7
2022-10-24T20:19:08.571Z,12.7
2022-10-24T20:21:34.708Z,12.7
2022-10-24T20:24:00.739Z,12.7
2022-10-24T20:26:26.901Z,12.7
2022-10-24T20:28:52.968Z,12.7
2022-10-24T20:31:19.023Z,12.7
2022-10-24T20:33:45.143Z,12.6
2022-10-24T20:36:11.222Z,12.6
2022-10-24T20:38:36.404Z,12.6
2022-10-24T20:41:02.437Z,12.6
2022-10-24T20:43:28.610Z,12.6
2022-10-24T20:45:54.640Z,12.7
2022-10-24T20:48:20.710Z,12.7
2022-10-24T20:50:46.828Z,12.7
2022-10-24T20:53:12.923Z,12.7
2022-10-24T20:55:39.029Z,12.7
2022-10-24T20:58:05.093Z,12.7
2022-10-24T21:00:31.238Z,12.7
2022-10-24T21:02:57.297Z,12.8
2022-10-24T21:05:23.439Z,12.8
2022-10-24T21:07:49.481Z,12.8
2022-10-24T21:10:14.598Z,12.8
2022-10-24T21:12:40.735Z,12.8
2022-10-24T21:15:06.790Z,12.8
2022-10-24T21:17:32.919Z,12.8
2022-10-24T21:19:58.986Z,12.8
2022-10-24T21:22:24.115Z,12.8
2022-10-24T21:24:50.251Z,12.8
2022-10-24T21:27:16.337Z,12.8
2022-10-24T21:29:42.412Z,12.8
2022-10-24T21:32:08.496Z,12.8
2022-10-24T21:34:34.607Z,12.7
2022-10-24T21:37:00.657Z,12.7
2022-10-24T21:39:26.826Z,12.7
2022-10-24T21:41:52.856Z,12.6
2022-10-24T21:44:18.951Z,12.6
2022-10-24T21:46:45.057Z,12.5
2022-10-24T21:49:11.143Z,12.5
2022-10-24T21:51:37.316Z,12.5
2022-10-24T21:54:02.342Z,12.4
2022-10-24T21:56:28.430Z,12.4
2022-10-24T21:58:54.556Z,12.4
2022-10-24T22:01:20.627Z,12.3
2022-10-24T22:03:46.752Z,12.3
2022-10-24T22:06:12.817Z,12.3
2022-10-24T22:08:38.946Z,12.2
2022-10-24T22:11:05.042Z,12.2
2022-10-24T22:13:31.146Z,12.1
2022-10-24T22:15:57.239Z,12.1
2022-10-24T22:18:23.393Z,12
2022-10-24T22:20:49.390Z,12
2022-10-24T22:23:15.486Z,11.9
2022-10-24T22:25:40.631Z,11.9
2022-10-24T22:28:06.694Z,11.8
2022-10-24T22:30:32.841Z,11.8
2022-10-24T22:32:58.949Z,11.7
2022-10-24T22:35:25.099Z,11.7
2022-10-24T22:37:51.093Z,11.6
2022-10-24T22:40:17.175Z,11.6
2022-10-24T22:42:43.290Z,11.5
2022-10-24T22:45:09.365Z,11.5
2022-10-24T22:47:35.490Z,11.5
2022-10-24T22:50:01.690Z,11.4
2022-10-24T22:52:27.769Z,11.4
2022-10-24T22:54:53.834Z,11.3
2022-10-24T22:57:18.971Z,11.3
2022-10-24T22:59:44.968Z,11.3
2022-10-24T23:02:11.171Z,11.3
2022-10-24T23:04:37.235Z,11.2
2022-10-24T23:07:03.323Z,11.2
2022-10-24T23:09:29.370Z,11.2
2022-10-24T23:11:55.472Z,11.1
2022-10-24T23:14:21.582Z,11.1
2022-10-24T23:16:47.615Z,11.1
2022-10-24T23:19:13.712Z,11.1
2022-10-24T23:21:39.813Z,11
2022-10-24T23:24:05.904Z,11
2022-10-24T23:26:32.022Z,11
2022-10-24T23:28:57.100Z,11
2022-10-24T23:31:23.191Z,11
2022-10-24T23:33:49.314Z,11
2022-10-24T23:36:15.377Z,11
2022-10-24T23:38:41.529Z,11
2022-10-24T23:41:07.645Z,11
2022-10-24T23:43:33.732Z,11
2022-10-24T23:45:59.779Z,11
2022-10-24T23:48:25.959Z,11
2022-10-24T23:50:51.975Z,11
2022-10-24T23:53:18.048Z,10.9
2022-10-24T23:55:44.171Z,10.9
2022-10-24T23:58:10.251Z,10.9
